x

Fripp Nearshore (frp 2) (41033) Weather Station

12:08pm - Mon 18th Dec 2017 All times are EST. -5 hours from GMT.

  • Wind
    7mph, 9mph gusts
  • Sea Temp 55°f
  • Air Temp 55°f
  • Sea Pressure 1021.2mb
  • Fripp Nearshore (frp 2)
  • Fripp Nearshore (frp 2)

More Historic Weather Station data

Upgrade to MSW Pro to gain access to the past 30 days of data for over 8000 Wavebouys and Weather Stations around the globe.

Join

Comparision Forecast

View Surf forecast
   
Mon 12/18 12:08pm 7 9 mph 1021.2mb 55f 55f
11:08am 7 11 mph 1022.9mb 55f 55f
10:08am 9 13 mph 1022.8mb 55f 56f
9:08am 9 13 mph 1022.7mb 55f 55f
8:08am 7 9 mph 1022.1mb 55f 55f
7:08am 7 9 mph 1021.5mb 55f 55f
6:08am 4 7 mph 1021.1mb 54f 54f
5:08am 2 4 mph 1021.1mb 54f 54f
4:08am 4 4 mph 1020.8mb 55f 54f
3:08am 4 7 mph 1021.2mb 55f 54f
2:08am 4 7 mph 1021.1mb 54f 54f
1:08am 2 7 mph 1021.6mb 55f 53f
12:08am  -  2 mph 1021.7mb 55f 54f
Sun 12/17 11:08pm 2 4 mph 1022.3mb 55f 56f
10:08pm 7 7 mph 1021.7mb 55f 55f
9:08pm 7 9 mph 1022.5mb 55f 55f
8:08pm 9 11 mph 1022.2mb 55f 54f
7:08pm 9 11 mph 1022.6mb 55f 53f
6:08pm 7 9 mph 1022.7mb 55f 52f
5:08pm 4 9 mph 1022.7mb 55f 51f
4:08pm 4 7 mph 1023.1mb 55f 53f
3:08pm 9 13 mph 1023.5mb 55f 55f
2:08pm 7 9 mph 1022.5mb 55f 57f
1:08pm 4 7 mph 1023.4mb 55f 57f
12:08pm 4 7 mph 1024.2mb 54f 56f
11:08am 4 9 mph 1025.7mb 55f 56f
10:08am 2 4 mph 1026.8mb 55f 56f
9:08am 2 7 mph 1026.8mb 54f 53f
8:08am 7 9 mph 1025.6mb 54f 48f
7:08am 9 11 mph 1024.5mb 55f 47f
6:08am 9 11 mph 1024.2mb 53f 47f
5:08am 7 9 mph 1024.4mb 55f 46f
4:08am 7 9 mph 1024.2mb 54f 47f
3:08am 7 9 mph 1025mb 54f 47f
2:08am 4 7 mph 1024.7mb 55f 47f
1:08am 4 7 mph 1025.1mb 55f 47f
12:08am 2 4 mph 1025.1mb 54f 47f
Sat 12/16 11:08pm 2 4 mph 1026.1mb 55f 47f
10:08pm 4 7 mph 1025.7mb 55f 49f
9:08pm 4 7 mph 1025.8mb 56f 48f
8:08pm 2 7 mph 1025.6mb 56f 48f
7:08pm 4 9 mph 1025.2mb 56f 47f
6:08pm 7 11 mph 1024mb 56f 47f
5:08pm 7 9 mph 1023.6mb 56f 50f
4:08pm 7 11 mph 1023.8mb 56f 57f
3:08pm 4 7 mph 1024.3mb 56f 60f
2:08pm 4 9 mph 1023.5mb 56f 55f
1:08pm 4 9 mph 1024.6mb 55f 51f
12:08pm 7 11 mph 1025.2mb 55f 47f
11:08am 9 16 mph 1026.6mb 55f 45f
10:08am 16 20 mph 1026mb 55f 42f
9:08am 20 25 mph 1025.5mb 55f 40f
8:08am 18 27 mph 1024.7mb 55f 40f
7:08am 16 20 mph 1023.8mb 55f 40f
6:08am 13 20 mph 1023.3mb 56f 40f
5:08am 18 22 mph 1023.2mb 56f 41f
4:08am 20 29 mph 1022.3mb 56f 42f
3:08am 18 22 mph 1022.3mb 55f 44f
2:08am 20 25 mph 1021.2mb 55f 45f
1:08am 16 20 mph 1021.3mb 55f 47f
12:08am 9 22 mph 1020.2mb 54f 49f
Fri 12/15 11:08pm 11 18 mph 1019.7mb 54f 50f
10:08pm 16 22 mph 1018.8mb 55f 52f
9:08pm 16 22 mph 1014.8mb 55f 53f
8:08pm 11 16 mph 1017.9mb 55f 53f
7:08pm 11 18 mph 1017mb 56f 53f
6:08pm 13 22 mph 1015.8mb 56f 54f
5:08pm 9 18 mph 1015.2mb 56f 54f
4:08pm 13 18 mph 1015mb 56f 55f
3:08pm 11 16 mph 1016.1mb 55f 53f
2:08pm 11 13 mph 1014.2mb 55f 52f
1:08pm 9 13 mph 1015mb 54f 52f
12:08pm 13 18 mph 1015.4mb 54f 55f
11:08am 9 13 mph 1016.5mb 54f 53f
10:08am 9 16 mph 1016.2mb 54f 52f
9:08am 9 9 mph 1016.1mb 54f 52f
8:08am 9 13 mph 1015.6mb 54f 52f
7:08am 7 11 mph 1015.4mb 54f 51f
6:08am 7 11 mph 1014.8mb 54f 51f
4:08am 7 11 mph 1015mb 54f 51f
3:08am 9 11 mph 1015.6mb 54f 52f
2:08am 7 13 mph 1015.8mb 53f 52f
1:08am 7 11 mph 1015.5mb 53f 52f
12:08am 11 16 mph 1015.6mb 53f 52f
Thu 12/14 11:08pm 16 20 mph 1015.9mb 54f 53f
10:08pm 11 18 mph 1015.5mb 54f 53f
9:08pm 7 13 mph 1011.7mb 55f 53f
8:08pm 9 18 mph 1014.9mb 55f 53f
7:08pm 11 18 mph 1014.7mb 55f 54f